sensor_id;sensor_type;location;lat;lon;timestamp;pressure;altitude;pressure_sealevel;temperature;humidity
34925;BME280;21130;51.728;8.748;2023-05-21T00:00:02;100579.88;;;9.92;100.00
34925;BME280;21130;51.728;8.748;2023-05-21T00:02:32;100575.31;;;9.86;100.00
34925;BME280;21130;51.728;8.748;2023-05-21T00:04:58;100579.75;;;9.87;100.00
34925;BME280;21130;51.728;8.748;2023-05-21T00:07:25;100585.19;;;9.82;100.00
34925;BME280;21130;51.728;8.748;2023-05-21T00:09:51;100579.78;;;9.99;100.00
34925;BME280;21130;51.728;8.748;2023-05-21T00:12:18;100573.84;;;9.95;100.00
34925;BME280;21130;51.728;8.748;2023-05-21T00:14:46;100575.19;;;9.93;100.00
34925;BME280;21130;51.728;8.748;2023-05-21T00:17:12;100570.72;;;9.92;100.00
34925;BME280;21130;51.728;8.748;2023-05-21T00:19:38;100575.31;;;9.86;100.00
34925;BME280;21130;51.728;8.748;2023-05-21T00:22:05;100574.56;;;9.79;100.00
34925;BME280;21130;51.728;8.748;2023-05-21T00:24:31;100563.13;;;9.76;100.00
34925;BME280;21130;51.728;8.748;2023-05-21T00:26:58;100560.19;;;9.70;100.00
34925;BME280;21130;51.728;8.748;2023-05-21T00:29:25;100570.69;;;9.80;100.00
34925;BME280;21130;51.728;8.748;2023-05-21T00:31:53;100561.41;;;9.74;100.00
34925;BME280;21130;51.728;8.748;2023-05-21T00:34:19;100562.00;;;9.65;100.00
34925;BME280;21130;51.728;8.748;2023-05-21T00:36:46;100546.94;;;9.72;100.00
34925;BME280;21130;51.728;8.748;2023-05-21T00:39:12;100558.88;;;9.61;100.00
34925;BME280;21130;51.728;8.748;2023-05-21T00:41:40;100549.34;;;9.57;100.00
34925;BME280;21130;51.728;8.748;2023-05-21T00:44:07;100546.69;;;9.62;100.00
34925;BME280;21130;51.728;8.748;2023-05-21T00:46:33;100544.50;;;9.52;100.00
34925;BME280;21130;51.728;8.748;2023-05-21T00:49:01;100542.22;;;9.49;100.00
34925;BME280;21130;51.728;8.748;2023-05-21T00:51:28;100540.13;;;9.45;100.00
34925;BME280;21130;51.728;8.748;2023-05-21T00:53:55;100536.19;;;9.41;100.00
34925;BME280;21130;51.728;8.748;2023-05-21T00:56:23;100536.06;;;9.47;100.00
34925;BME280;21130;51.728;8.748;2023-05-21T00:58:50;100532.84;;;9.50;100.00
34925;BME280;21130;51.728;8.748;2023-05-21T01:01:17;100530.06;;;9.50;100.00
34925;BME280;21130;51.728;8.748;2023-05-21T01:03:43;100526.41;;;9.50;100.00
34925;BME280;21130;51.728;8.748;2023-05-21T01:06:14;100525.81;;;9.48;100.00
34925;BME280;21130;51.728;8.748;2023-05-21T01:09:01;100529.41;;;9.37;100.00
34925;BME280;21130;51.728;8.748;2023-05-21T01:11:50;100520.25;;;9.36;100.00
34925;BME280;21130;51.728;8.748;2023-05-21T01:14:17;100525.88;;;9.29;100.00
34925;BME280;21130;51.728;8.748;2023-05-21T01:16:47;100521.06;;;9.25;100.00
34925;BME280;21130;51.728;8.748;2023-05-21T01:19:15;100517.22;;;9.26;100.00
34925;BME280;21130;51.728;8.748;2023-05-21T01:21:46;100518.69;;;9.28;100.00
34925;BME280;21130;51.728;8.748;2023-05-21T01:24:15;100518.69;;;9.28;100.00
34925;BME280;21130;51.728;8.748;2023-05-21T01:26:42;100524.34;;;9.34;100.00
34925;BME280;21130;51.728;8.748;2023-05-21T01:29:11;100517.34;;;9.31;100.00
34925;BME280;21130;51.728;8.748;2023-05-21T01:31:46;100525.41;;;9.33;100.00
34925;BME280;21130;51.728;8.748;2023-05-21T01:34:14;100516.84;;;9.22;100.00
34925;BME280;21130;51.728;8.748;2023-05-21T01:36:54;100514.19;;;9.27;100.00
34925;BME280;21130;51.728;8.748;2023-05-21T01:39:26;100520.84;;;9.26;100.00
34925;BME280;21130;51.728;8.748;2023-05-21T01:41:55;100517.53;;;9.18;100.00
34925;BME280;21130;51.728;8.748;2023-05-21T01:44:23;100515.03;;;9.16;100.00
34925;BME280;21130;51.728;8.748;2023-05-21T01:46:51;100524.22;;;9.28;100.00
34925;BME280;21130;51.728;8.748;2023-05-21T01:49:19;100518.28;;;9.25;100.00
34925;BME280;21130;51.728;8.748;2023-05-21T01:51:47;100519.47;;;9.17;100.00
34925;BME280;21130;51.728;8.748;2023-05-21T01:54:13;100517.19;;;9.14;100.00
34925;BME280;21130;51.728;8.748;2023-05-21T01:56:41;100516.41;;;9.07;100.00
34925;BME280;21130;51.728;8.748;2023-05-21T01:59:07;100524.50;;;9.08;100.00
34925;BME280;21130;51.728;8.748;2023-05-21T02:01:34;100522.63;;;9.21;100.00
34925;BME280;21130;51.728;8.748;2023-05-21T02:04:00;100523.81;;;9.13;100.00
34925;BME280;21130;51.728;8.748;2023-05-21T02:06:27;100519.19;;;9.07;100.00
34925;BME280;21130;51.728;8.748;2023-05-21T02:08:53;100515.22;;;9.03;100.00
34925;BME280;21130;51.728;8.748;2023-05-21T02:14:28;100517.41;;;9.13;100.00
34925;BME280;21130;51.728;8.748;2023-05-21T02:16:57;100517.41;;;9.13;100.00
34925;BME280;21130;51.728;8.748;2023-05-21T02:19:24;100510.53;;;9.15;100.00
34925;BME280;21130;51.728;8.748;2023-05-21T02:21:51;100513.78;;;9.12;100.00
34925;BME280;21130;51.728;8.748;2023-05-21T02:24:17;100499.06;;;9.00;100.00
34925;BME280;21130;51.728;8.748;2023-05-21T02:26:44;100509.78;;;8.96;100.00
34925;BME280;21130;51.728;8.748;2023-05-21T02:29:12;100504.94;;;8.92;100.00
34925;BME280;21130;51.728;8.748;2023-05-21T02:31:40;100510.25;;;8.93;100.00
34925;BME280;21130;51.728;8.748;2023-05-21T02:34:06;100497.44;;;8.80;100.00
34925;BME280;21130;51.728;8.748;2023-05-21T02:36:33;100510.41;;;8.80;100.00
34925;BME280;21130;51.728;8.748;2023-05-21T02:39:00;100497.50;;;8.74;100.00
34925;BME280;21130;51.728;8.748;2023-05-21T02:41:26;100505.03;;;8.67;100.00
34925;BME280;21130;51.728;8.748;2023-05-21T02:43:52;100500.22;;;8.62;100.00
34925;BME280;21130;51.728;8.748;2023-05-21T02:46:19;100495.16;;;8.59;100.00
34925;BME280;21130;51.728;8.748;2023-05-21T02:48:47;100505.59;;;8.57;100.00
34925;BME280;21130;51.728;8.748;2023-05-21T02:51:13;100499.00;;;8.58;100.00
34925;BME280;21130;51.728;8.748;2023-05-21T02:53:40;100498.84;;;8.53;100.00
34925;BME280;21130;51.728;8.748;2023-05-21T02:56:06;100491.88;;;8.50;100.00
34925;BME280;21130;51.728;8.748;2023-05-21T02:58:32;100493.31;;;8.53;100.00
34925;BME280;21130;51.728;8.748;2023-05-21T03:00:59;100493.06;;;8.54;100.00
34925;BME280;21130;51.728;8.748;2023-05-21T03:03:25;100486.56;;;8.49;100.00
34925;BME280;21130;51.728;8.748;2023-05-21T03:05:53;100488.63;;;8.53;100.00
34925;BME280;21130;51.728;8.748;2023-05-21T03:08:19;100499.69;;;8.53;100.00
34925;BME280;21130;51.728;8.748;2023-05-21T03:10:46;100499.06;;;8.51;100.00
34925;BME280;21130;51.728;8.748;2023-05-21T03:13:13;100488.69;;;8.47;100.00
34925;BME280;21130;51.728;8.748;2023-05-21T03:15:39;100495.31;;;8.46;100.00
34925;BME280;21130;51.728;8.748;2023-05-21T03:18:08;100489.16;;;8.43;100.00
34925;BME280;21130;51.728;8.748;2023-05-21T03:20:35;100485.78;;;8.41;100.00
34925;BME280;21130;51.728;8.748;2023-05-21T03:23:09;100482.41;;;8.39;100.00
34925;BME280;21130;51.728;8.748;2023-05-21T03:25:36;100483.03;;;8.41;100.00
34925;BME280;21130;51.728;8.748;2023-05-21T03:28:03;100478.47;;;8.47;100.00
34925;BME280;21130;51.728;8.748;2023-05-21T03:30:30;100479.31;;;8.48;100.00
34925;BME280;21130;51.728;8.748;2023-05-21T03:32:57;100477.84;;;8.45;100.00
34925;BME280;21130;51.728;8.748;2023-05-21T03:35:24;100471.97;;;8.41;100.00
34925;BME280;21130;51.728;8.748;2023-05-21T03:37:50;100481.94;;;8.42;100.00
34925;BME280;21130;51.728;8.748;2023-05-21T03:40:18;100477.25;;;8.43;100.00
34925;BME280;21130;51.728;8.748;2023-05-21T03:42:45;100480.03;;;8.43;100.00
34925;BME280;21130;51.728;8.748;2023-05-21T03:45:12;100473.56;;;8.49;100.00
34925;BME280;21130;51.728;8.748;2023-05-21T03:47:38;100484.84;;;8.48;100.00
34925;BME280;21130;51.728;8.748;2023-05-21T03:50:06;100489.44;;;8.72;100.00
34925;BME280;21130;51.728;8.748;2023-05-21T03:52:33;100482.28;;;8.64;100.00
34925;BME280;21130;51.728;8.748;2023-05-21T03:55:00;100482.78;;;8.61;100.00
34925;BME280;21130;51.728;8.748;2023-05-21T03:57:28;100482.78;;;8.61;100.00
34925;BME280;21130;51.728;8.748;2023-05-21T03:59:54;100490.22;;;8.61;100.00
34925;BME280;21130;51.728;8.748;2023-05-21T04:02:24;100489.53;;;8.65;100.00
34925;BME280;21130;51.728;8.748;2023-05-21T04:04:51;100487.75;;;8.71;100.00
34925;BME280;21130;51.728;8.748;2023-05-21T04:07:19;100489.69;;;8.71;100.00
34925;BME280;21130;51.728;8.748;2023-05-21T04:09:46;100488.88;;;8.82;100.00
34925;BME280;21130;51.728;8.748;2023-05-21T04:12:13;100493.56;;;8.81;100.00
34925;BME280;21130;51.728;8.748;2023-05-21T04:14:40;100492.47;;;8.82;100.00
34925;BME280;21130;51.728;8.748;2023-05-21T04:17:07;100502.38;;;8.90;100.00
34925;BME280;21130;51.728;8.748;2023-05-21T04:19:34;100506.59;;;8.93;100.00
34925;BME280;21130;51.728;8.748;2023-05-21T04:22:00;100508.69;;;8.97;100.00
34925;BME280;21130;51.728;8.748;2023-05-21T04:24:27;100504.72;;;9.05;100.00
34925;BME280;21130;51.728;8.748;2023-05-21T04:26:53;100506.81;;;9.09;100.00
34925;BME280;21130;51.728;8.748;2023-05-21T04:29:20;100498.41;;;9.16;100.00
34925;BME280;21130;51.728;8.748;2023-05-21T04:31:48;100500.84;;;9.24;100.00
34925;BME280;21130;51.728;8.748;2023-05-21T04:34:14;100499.28;;;9.28;100.00
34925;BME280;21130;51.728;8.748;2023-05-21T04:36:43;100499.91;;;9.30;100.00
34925;BME280;21130;51.728;8.748;2023-05-21T04:39:10;100505.72;;;9.41;100.00
34925;BME280;21130;51.728;8.748;2023-05-21T04:41:37;100513.88;;;9.47;100.00
34925;BME280;21130;51.728;8.748;2023-05-21T04:44:05;100508.38;;;9.59;100.00
34925;BME280;21130;51.728;8.748;2023-05-21T04:46:32;100514.75;;;9.60;100.00
34925;BME280;21130;51.728;8.748;2023-05-21T04:49:00;100515.84;;;9.70;100.00
34925;BME280;21130;51.728;8.748;2023-05-21T04:51:27;100510.69;;;9.74;100.00
34925;BME280;21130;51.728;8.748;2023-05-21T04:53:54;100512.75;;;9.79;100.00
34925;BME280;21130;51.728;8.748;2023-05-21T04:56:22;100516.50;;;9.96;100.00
34925;BME280;21130;51.728;8.748;2023-05-21T04:58:50;100505.16;;;9.98;100.00
34925;BME280;21130;51.728;8.748;2023-05-21T05:01:18;100509.97;;;10.02;100.00
34925;BME280;21130;51.728;8.748;2023-05-21T05:03:47;100502.88;;;10.06;100.00
34925;BME280;21130;51.728;8.748;2023-05-21T05:06:14;100504.19;;;10.15;100.00
34925;BME280;21130;51.728;8.748;2023-05-21T05:08:42;100504.78;;;10.17;100.00
34925;BME280;21130;51.728;8.748;2023-05-21T05:11:08;100505.16;;;10.33;100.00
34925;BME280;21130;51.728;8.748;2023-05-21T05:13:34;100500.09;;;10.42;100.00
34925;BME280;21130;51.728;8.748;2023-05-21T05:16:01;100501.66;;;10.49;100.00
34925;BME280;21130;51.728;8.748;2023-05-21T05:18:28;100489.94;;;10.59;100.00
34925;BME280;21130;51.728;8.748;2023-05-21T05:20:54;100492.41;;;10.72;100.00
34925;BME280;21130;51.728;8.748;2023-05-21T05:23:25;100481.50;;;10.82;100.00
34925;BME280;21130;51.728;8.748;2023-05-21T05:25:51;100483.53;;;10.87;100.00
34925;BME280;21130;51.728;8.748;2023-05-21T05:28:17;100477.34;;;10.97;100.00
34925;BME280;21130;51.728;8.748;2023-05-21T05:30:44;100481.75;;;11.10;100.00
34925;BME280;21130;51.728;8.748;2023-05-21T05:33:12;100478.56;;;11.18;100.00
34925;BME280;21130;51.728;8.748;2023-05-21T05:35:39;100479.91;;;11.15;100.00
34925;BME280;21130;51.728;8.748;2023-05-21T05:38:05;100483.63;;;11.21;100.00
34925;BME280;21130;51.728;8.748;2023-05-21T05:40:34;100475.00;;;11.34;100.00
34925;BME280;21130;51.728;8.748;2023-05-21T05:43:00;100468.34;;;11.52;100.00
34925;BME280;21130;51.728;8.748;2023-05-21T05:45:27;100473.16;;;11.57;100.00
34925;BME280;21130;51.728;8.748;2023-05-21T05:47:53;100474.75;;;11.70;100.00
34925;BME280;21130;51.728;8.748;2023-05-21T05:50:20;100470.78;;;11.82;100.00
34925;BME280;21130;51.728;8.748;2023-05-21T05:52:46;100470.25;;;11.85;100.00
34925;BME280;21130;51.728;8.748;2023-05-21T05:55:13;100469.28;;;11.92;100.00
34925;BME280;21130;51.728;8.748;2023-05-21T05:57:40;100462.00;;;12.07;100.00
34925;BME280;21130;51.728;8.748;2023-05-21T06:00:08;100466.88;;;12.17;100.00
34925;BME280;21130;51.728;8.748;2023-05-21T06:02:35;100460.69;;;12.32;100.00
34925;BME280;21130;51.728;8.748;2023-05-21T06:05:01;100464.44;;;12.43;100.00
34925;BME280;21130;51.728;8.748;2023-05-21T06:07:28;100462.31;;;12.50;100.00
34925;BME280;21130;51.728;8.748;2023-05-21T06:09:54;100460.22;;;12.40;100.00
34925;BME280;21130;51.728;8.748;2023-05-21T06:12:21;100457.97;;;12.59;100.00
34925;BME280;21130;51.728;8.748;2023-05-21T06:14:49;100456.75;;;12.72;100.00
34925;BME280;21130;51.728;8.748;2023-05-21T06:17:16;100454.13;;;12.87;100.00
34925;BME280;21130;51.728;8.748;2023-05-21T06:19:42;100450.09;;;13.00;100.00
34925;BME280;21130;51.728;8.748;2023-05-21T06:22:09;100450.81;;;13.17;100.00
34925;BME280;21130;51.728;8.748;2023-05-21T06:24:36;100454.31;;;13.30;100.00
34925;BME280;21130;51.728;8.748;2023-05-21T06:27:02;100444.97;;;13.46;100.00
34925;BME280;21130;51.728;8.748;2023-05-21T06:29:29;100446.44;;;13.54;100.00
34925;BME280;21130;51.728;8.748;2023-05-21T06:31:57;100445.59;;;13.53;100.00
34925;BME280;21130;51.728;8.748;2023-05-21T06:34:23;100451.84;;;13.66;100.00
34925;BME280;21130;51.728;8.748;2023-05-21T06:36:50;100442.94;;;13.69;100.00
34925;BME280;21130;51.728;8.748;2023-05-21T06:39:16;100446.22;;;13.98;100.00
34925;BME280;21130;51.728;8.748;2023-05-21T06:41:43;100440.97;;;14.12;100.00
34925;BME280;21130;51.728;8.748;2023-05-21T06:44:09;100442.78;;;14.33;100.00
34925;BME280;21130;51.728;8.748;2023-05-21T06:46:36;100444.22;;;14.41;100.00
34925;BME280;21130;51.728;8.748;2023-05-21T06:49:03;100436.53;;;14.63;100.00
34925;BME280;21130;51.728;8.748;2023-05-21T06:51:31;100437.66;;;14.62;100.00
34925;BME280;21130;51.728;8.748;2023-05-21T06:53:57;100445.75;;;14.74;100.00
34925;BME280;21130;51.728;8.748;2023-05-21T06:56:24;100445.00;;;15.04;100.00
34925;BME280;21130;51.728;8.748;2023-05-21T06:58:50;100448.13;;;15.13;100.00
34925;BME280;21130;51.728;8.748;2023-05-21T07:01:17;100451.75;;;15.13;100.00
34925;BME280;21130;51.728;8.748;2023-05-21T07:03:44;100450.94;;;15.23;100.00
34925;BME280;21130;51.728;8.748;2023-05-21T07:06:11;100442.56;;;15.49;100.00
34925;BME280;21130;51.728;8.748;2023-05-21T07:08:38;100435.88;;;15.50;100.00
34925;BME280;21130;51.728;8.748;2023-05-21T07:11:04;100447.34;;;15.79;100.00
34925;BME280;21130;51.728;8.748;2023-05-21T07:13:31;100446.75;;;15.92;100.00
34925;BME280;21130;51.728;8.748;2023-05-21T07:15:58;100443.06;;;16.12;100.00
34925;BME280;21130;51.728;8.748;2023-05-21T07:18:24;100440.00;;;16.14;100.00
34925;BME280;21130;51.728;8.748;2023-05-21T07:20:51;100448.63;;;16.43;100.00
34925;BME280;21130;51.728;8.748;2023-05-21T07:23:19;100446.03;;;16.57;100.00
34925;BME280;21130;51.728;8.748;2023-05-21T07:25:46;100444.25;;;16.87;100.00
34925;BME280;21130;51.728;8.748;2023-05-21T07:28:12;100445.16;;;17.21;100.00
34925;BME280;21130;51.728;8.748;2023-05-21T07:30:39;100447.69;;;17.23;100.00
34925;BME280;21130;51.728;8.748;2023-05-21T07:33:05;100446.09;;;17.46;100.00
34925;BME280;21130;51.728;8.748;2023-05-21T07:35:32;100444.41;;;17.79;100.00
34925;BME280;21130;51.728;8.748;2023-05-21T07:37:58;100443.75;;;17.92;100.00
34925;BME280;21130;51.728;8.748;2023-05-21T07:40:26;100437.69;;;17.80;100.00
34925;BME280;21130;51.728;8.748;2023-05-21T07:42:52;100443.59;;;18.08;100.00
34925;BME280;21130;51.728;8.748;2023-05-21T07:45:19;100434.25;;;18.42;100.00
34925;BME280;21130;51.728;8.748;2023-05-21T07:47:45;100424.66;;;18.43;100.00
34925;BME280;21130;51.728;8.748;2023-05-21T07:50:13;100428.88;;;18.21;100.00
34925;BME280;21130;51.728;8.748;2023-05-21T07:52:39;100417.72;;;18.59;100.00
34925;BME280;21130;51.728;8.748;2023-05-21T07:55:07;100430.09;;;18.82;100.00
34925;BME280;21130;51.728;8.748;2023-05-21T07:57:35;100421.97;;;18.81;100.00
34925;BME280;21130;51.728;8.748;2023-05-21T08:00:02;100427.09;;;18.73;100.00
34925;BME280;21130;51.728;8.748;2023-05-21T08:02:30;100415.59;;;18.94;100.00
34925;BME280;21130;51.728;8.748;2023-05-21T08:04:56;100420.38;;;19.12;100.00
34925;BME280;21130;51.728;8.748;2023-05-21T08:07:23;100418.97;;;19.48;100.00
34925;BME280;21130;51.728;8.748;2023-05-21T08:09:49;100419.97;;;19.57;100.00
34925;BME280;21130;51.728;8.748;2023-05-21T08:12:17;100415.28;;;19.66;100.00
34925;BME280;21130;51.728;8.748;2023-05-21T08:14:45;100416.91;;;19.72;100.00
34925;BME280;21130;51.728;8.748;2023-05-21T08:17:12;100419.03;;;19.80;100.00
34925;BME280;21130;51.728;8.748;2023-05-21T08:19:39;100412.56;;;19.80;100.00
34925;BME280;21130;51.728;8.748;2023-05-21T08:22:06;100413.88;;;19.69;100.00
34925;BME280;21130;51.728;8.748;2023-05-21T08:24:32;100412.59;;;20.07;100.00
34925;BME280;21130;51.728;8.748;2023-05-21T08:26:59;100410.03;;;20.25;100.00
34925;BME280;21130;51.728;8.748;2023-05-21T08:29:25;100411.69;;;20.26;100.00
34925;BME280;21130;51.728;8.748;2023-05-21T08:31:53;100402.28;;;20.31;100.00
34925;BME280;21130;51.728;8.748;2023-05-21T08:34:20;100415.06;;;20.56;100.00
34925;BME280;21130;51.728;8.748;2023-05-21T08:36:47;100417.13;;;20.64;100.00
34925;BME280;21130;51.728;8.748;2023-05-21T08:39:14;100409.59;;;20.73;100.00
34925;BME280;21130;51.728;8.748;2023-05-21T08:41:41;100409.16;;;20.93;100.00
34925;BME280;21130;51.728;8.748;2023-05-21T08:44:13;100408.28;;;21.07;100.00
34925;BME280;21130;51.728;8.748;2023-05-21T08:46:44;100400.72;;;21.16;100.00
34925;BME280;21130;51.728;8.748;2023-05-21T08:49:12;100399.22;;;20.96;100.00
34925;BME280;21130;51.728;8.748;2023-05-21T08:51:40;100411.84;;;21.35;100.00
34925;BME280;21130;51.728;8.748;2023-05-21T08:54:07;100406.94;;;21.63;100.00
34925;BME280;21130;51.728;8.748;2023-05-21T08:56:34;100409.88;;;21.81;100.00
34925;BME280;21130;51.728;8.748;2023-05-21T08:59:01;100412.00;;;22.06;100.00
34925;BME280;21130;51.728;8.748;2023-05-21T09:01:28;100406.84;;;21.99;100.00
34925;BME280;21130;51.728;8.748;2023-05-21T09:03:58;100405.78;;;21.64;100.00
34925;BME280;21130;51.728;8.748;2023-05-21T09:06:27;100407.31;;;21.70;100.00
34925;BME280;21130;51.728;8.748;2023-05-21T09:09:01;100403.09;;;22.13;100.00
34925;BME280;21130;51.728;8.748;2023-05-21T09:11:30;100403.84;;;22.93;100.00
34925;BME280;21130;51.728;8.748;2023-05-21T09:13:57;100408.41;;;23.38;100.00
34925;BME280;21130;51.728;8.748;2023-05-21T09:25:46;100403.03;;;23.71;98.06
34925;BME280;21130;51.728;8.748;2023-05-21T09:28:14;100406.06;;;23.75;100.00
34925;BME280;21130;51.728;8.748;2023-05-21T09:30:44;100406.69;;;23.89;100.00
34925;BME280;21130;51.728;8.748;2023-05-21T09:33:11;100403.22;;;23.83;93.51
34925;BME280;21130;51.728;8.748;2023-05-21T09:35:43;100402.69;;;22.94;97.85
34925;BME280;21130;51.728;8.748;2023-05-21T09:38:10;100410.66;;;22.26;100.00
34925;BME280;21130;51.728;8.748;2023-05-21T09:40:42;100397.00;;;22.68;100.00
34925;BME280;21130;51.728;8.748;2023-05-21T09:43:12;100394.63;;;22.53;100.00
34925;BME280;21130;51.728;8.748;2023-05-21T09:45:49;100401.56;;;23.04;100.00
34925;BME280;21130;51.728;8.748;2023-05-21T09:48:16;100403.41;;;23.17;100.00
34925;BME280;21130;51.728;8.748;2023-05-21T09:50:42;100401.41;;;23.26;100.00
34925;BME280;21130;51.728;8.748;2023-05-21T09:53:11;100393.91;;;23.83;97.28
34925;BME280;21130;51.728;8.748;2023-05-21T09:55:38;100395.06;;;23.73;98.64
34925;BME280;21130;51.728;8.748;2023-05-21T09:58:05;100389.91;;;23.75;98.98
34925;BME280;21130;51.728;8.748;2023-05-21T10:00:32;100385.50;;;24.04;96.68
34925;BME280;21130;51.728;8.748;2023-05-21T10:03:00;100379.31;;;24.78;89.79
34925;BME280;21130;51.728;8.748;2023-05-21T10:05:28;100371.22;;;24.89;90.37
34925;BME280;21130;51.728;8.748;2023-05-21T10:08:15;100373.97;;;25.61;89.04
34925;BME280;21130;51.728;8.748;2023-05-21T10:11:01;100364.88;;;25.34;79.26
34925;BME280;21130;51.728;8.748;2023-05-21T10:13:28;100362.16;;;25.17;88.33
34925;BME280;21130;51.728;8.748;2023-05-21T10:16:00;100367.09;;;24.19;94.46
34925;BME280;21130;51.728;8.748;2023-05-21T10:18:28;100367.69;;;23.86;94.91
34925;BME280;21130;51.728;8.748;2023-05-21T10:20:57;100365.38;;;23.70;97.67
34925;BME280;21130;51.728;8.748;2023-05-21T10:23:24;100371.88;;;23.71;100.00
34925;BME280;21130;51.728;8.748;2023-05-21T10:25:52;100369.03;;;23.80;96.75
34925;BME280;21130;51.728;8.748;2023-05-21T10:28:19;100368.06;;;23.76;97.85
34925;BME280;21130;51.728;8.748;2023-05-21T10:30:45;100365.88;;;23.64;100.00
34925;BME280;21130;51.728;8.748;2023-05-21T10:33:14;100359.72;;;23.62;98.43
34925;BME280;21130;51.728;8.748;2023-05-21T10:35:41;100360.25;;;23.73;98.83
34925;BME280;21130;51.728;8.748;2023-05-21T10:38:10;100354.56;;;23.64;98.62
34925;BME280;21130;51.728;8.748;2023-05-21T10:40:38;100351.53;;;23.86;98.55
34925;BME280;21130;51.728;8.748;2023-05-21T10:43:40;100350.47;;;24.00;97.97
34925;BME280;21130;51.728;8.748;2023-05-21T10:46:33;100344.94;;;24.42;99.32
34925;BME280;21130;51.728;8.748;2023-05-21T10:49:17;100347.63;;;24.08;95.21
34925;BME280;21130;51.728;8.748;2023-05-21T10:51:56;100346.41;;;24.18;97.48
34925;BME280;21130;51.728;8.748;2023-05-21T10:54:38;100347.88;;;24.24;90.86
34925;BME280;21130;51.728;8.748;2023-05-21T10:57:21;100336.50;;;24.33;88.52
34925;BME280;21130;51.728;8.748;2023-05-21T10:59:57;100341.97;;;24.38;93.84
34925;BME280;21130;51.728;8.748;2023-05-21T11:02:25;100334.78;;;24.41;92.10
34925;BME280;21130;51.728;8.748;2023-05-21T11:04:58;100337.31;;;24.33;91.60
34925;BME280;21130;51.728;8.748;2023-05-21T11:07:49;100339.25;;;24.50;93.16
34925;BME280;21130;51.728;8.748;2023-05-21T11:10:28;100343.88;;;24.55;89.52
34925;BME280;21130;51.728;8.748;2023-05-21T11:13:10;100337.88;;;24.77;81.02
34925;BME280;21130;51.728;8.748;2023-05-21T11:16:05;100340.13;;;24.93;81.64
34925;BME280;21130;51.728;8.748;2023-05-21T11:18:59;100328.28;;;25.33;79.05
34925;BME280;21130;51.728;8.748;2023-05-21T11:21:30;100332.19;;;25.28;76.93
34925;BME280;21130;51.728;8.748;2023-05-21T11:24:06;100327.88;;;25.01;77.75
34925;BME280;21130;51.728;8.748;2023-05-21T11:27:05;100332.56;;;24.97;84.39
34925;BME280;21130;51.728;8.748;2023-05-21T11:29:43;100328.41;;;25.15;79.54
34925;BME280;21130;51.728;8.748;2023-05-21T11:32:14;100319.75;;;25.33;82.09
34925;BME280;21130;51.728;8.748;2023-05-21T11:34:45;100323.56;;;25.37;85.71
34925;BME280;21130;51.728;8.748;2023-05-21T11:37:24;100329.81;;;25.30;96.89
34925;BME280;21130;51.728;8.748;2023-05-21T11:39:53;100323.31;;;25.09;100.00
34925;BME280;21130;51.728;8.748;2023-05-21T11:42:31;100326.78;;;24.93;99.75
34925;BME280;21130;51.728;8.748;2023-05-21T11:44:58;100315.63;;;24.88;99.75
34925;BME280;21130;51.728;8.748;2023-05-21T11:47:26;100326.00;;;25.26;98.42
34925;BME280;21130;51.728;8.748;2023-05-21T11:49:53;100324.97;;;24.89;100.00
34925;BME280;21130;51.728;8.748;2023-05-21T11:52:20;100321.34;;;24.79;100.00
34925;BME280;21130;51.728;8.748;2023-05-21T11:54:49;100328.81;;;25.05;100.00
34925;BME280;21130;51.728;8.748;2023-05-21T11:57:19;100323.19;;;25.26;100.00
34925;BME280;21130;51.728;8.748;2023-05-21T11:59:46;100320.06;;;24.98;100.00
34925;BME280;21130;51.728;8.748;2023-05-21T12:02:14;100316.25;;;24.94;100.00
34925;BME280;21130;51.728;8.748;2023-05-21T12:04:41;100321.50;;;25.25;100.00
34925;BME280;21130;51.728;8.748;2023-05-21T12:07:09;100322.63;;;25.45;100.00
34925;BME280;21130;51.728;8.748;2023-05-21T12:09:39;100316.09;;;25.32;100.00
34925;BME280;21130;51.728;8.748;2023-05-21T12:12:07;100313.88;;;25.50;100.00
34925;BME280;21130;51.728;8.748;2023-05-21T12:14:34;100314.25;;;25.49;100.00
34925;BME280;21130;51.728;8.748;2023-05-21T12:17:01;100302.06;;;25.48;100.00
34925;BME280;21130;51.728;8.748;2023-05-21T12:19:31;100309.31;;;25.70;99.74
34925;BME280;21130;51.728;8.748;2023-05-21T12:21:59;100305.97;;;25.43;96.70
34925;BME280;21130;51.728;8.748;2023-05-21T12:24:29;100297.63;;;25.72;99.12
34925;BME280;21130;51.728;8.748;2023-05-21T12:26:56;100303.97;;;26.02;100.00
34925;BME280;21130;51.728;8.748;2023-05-21T12:29:25;100306.84;;;25.69;98.82
34925;BME280;21130;51.728;8.748;2023-05-21T12:31:52;100306.97;;;25.72;100.00
34925;BME280;21130;51.728;8.748;2023-05-21T12:34:39;100312.28;;;25.61;98.33
34925;BME280;21130;51.728;8.748;2023-05-21T12:37:06;100310.38;;;25.53;100.00
34925;BME280;21130;51.728;8.748;2023-05-21T12:39:36;100318.66;;;25.25;100.00
34925;BME280;21130;51.728;8.748;2023-05-21T12:42:03;100316.50;;;25.55;100.00
34925;BME280;21130;51.728;8.748;2023-05-21T12:44:31;100320.53;;;25.54;98.78
34925;BME280;21130;51.728;8.748;2023-05-21T12:46:58;100317.63;;;25.30;100.00
34925;BME280;21130;51.728;8.748;2023-05-21T12:49:32;100318.22;;;25.14;100.00
34925;BME280;21130;51.728;8.748;2023-05-21T12:52:01;100308.75;;;24.89;100.00
34925;BME280;21130;51.728;8.748;2023-05-21T12:54:30;100314.44;;;24.89;100.00
34925;BME280;21130;51.728;8.748;2023-05-21T12:56:56;100308.63;;;24.86;100.00
34925;BME280;21130;51.728;8.748;2023-05-21T12:59:23;100308.28;;;24.66;100.00
34925;BME280;21130;51.728;8.748;2023-05-21T13:01:52;100309.72;;;24.51;100.00
34925;BME280;21130;51.728;8.748;2023-05-21T13:04:19;100308.31;;;24.57;100.00